Aérodrome :
LOGIN :

S'inscrire | Disclaimer

   EN    FR    IT 

 










Légende :    VFR   VFR Marginal   IFR   IFR Intensif   IFR Très Intensif
Visi : 
Plafond : 
>= 8 km
>= 3000ft
5 à 8 km
1000 à 3000 ft
1500m à 5 km
500 à 1000 ft
800 à 1500m
200 à 500 ft
< 800m
< 200 ft
Symboles :   Orages  Brouillard  Fortes neiges  Fortes précipitations  Vent > 20 kt
SIGMETs :   Divers  Orages  Givrage  Turbulence  Onde Orograph.  Cendres Volcan.







- Altitude de l'aérodrome : 325 ft
- Code IATA : BES
- Voir les cartes d'approche


LFRB - Brest

DERNIER METAR :
  • 180100Z AUTO 24011KT 6000 OVC003 11/11 Q1026 TEMPO 0500 FG VV///

METARs EXPIRÉS :
  • 180030Z AUTO 25011KT 7000 OVC004 11/11 Q1026 TEMPO 0500 FG VV///
  • 180000Z AUTO 26009KT 230V290 7000 -DZ OVC004 11/11 Q1027 TEMPO 0500 FG VV///
  • 172330Z AUTO 26008KT 5000 -DZ BR OVC004 11/11 Q1027 TEMPO 0500 FG VV///
  • 172300Z AUTO 26009KT 4400 -DZ BR OVC004 11/10 Q1028 TEMPO 2000 DZ OVC006
  • 172230Z AUTO 26010KT 4100 -DZ BR OVC004 11/10 Q1027 TEMPO 2000 DZ OVC006

TAF TAF LFRB
Valide du 18 à 00h jusqu'au 19 à 06h UTC


172300Z 1800/1906 25010KT 4000 -DZ OVC004
BECMG 1803/1806 32007KT
TEMPO 1800/1808 2000 DZ OVC002
PROB30
TEMPO 1800/1803 0500 FG VV///
BECMG 1809/1812 BKN010
BECMG 1812/1815 05008KT SCT015
TEMPO 1900/1906 3000 BR
PROB30
TEMPO 1903/1906 0800 FG
ATIS : +33 2 98 32 02 71
Pas de NOTAMs connus pour ce terrain.



MET'MAP, la Météo Aéronautique d'un coup d'oeil ! - Copyright ORBIFLY Décembre 2007 - Disclaimer

ORBIFLY MET'MAP TEAM :

Programmation & Développement : Alexandra Zaïnal
Conception & Développement : Baudouin d'Aumeries
Co-Programmation & Développement : Marc-Olivier Méhu
Soutien technique & logistique : Manuel Goepfert

Contact : metmap@orbifly.com




SOURCES & CREDITS :

   NOAA